createdAt,value
2023-05-14T00:01:04.865Z,55.99
2023-05-14T00:03:31.541Z,57.09
2023-05-14T00:05:58.438Z,57.40
2023-05-14T00:08:25.086Z,57.34
2023-05-14T00:10:52.204Z,58.11
2023-05-14T00:13:18.820Z,58.79
2023-05-14T00:15:45.522Z,60.49
2023-05-14T00:18:12.454Z,61.31
2023-05-14T00:20:39.454Z,61.46
2023-05-14T00:23:06.110Z,62.27
2023-05-14T00:25:32.719Z,62.36
2023-05-14T00:27:59.469Z,61.56
2023-05-14T00:30:26.199Z,60.38
2023-05-14T00:32:52.902Z,60.61
2023-05-14T00:35:21.500Z,60.52
2023-05-14T00:37:48.175Z,61.25
2023-05-14T00:40:15.539Z,61.59
2023-05-14T00:42:42.235Z,62.74
2023-05-14T00:45:09.207Z,63.10
2023-05-14T00:47:36.531Z,63.86
2023-05-14T00:50:04.058Z,64.17
2023-05-14T00:52:31.508Z,64.34
2023-05-14T00:54:59.071Z,64.20
2023-05-14T00:57:25.822Z,64.61
2023-05-14T00:59:52.628Z,64.56
2023-05-14T01:02:19.219Z,64.82
2023-05-14T01:04:45.890Z,64.56
2023-05-14T01:07:23.392Z,64.70
2023-05-14T01:10:29.059Z,64.87
2023-05-14T01:13:13.970Z,65.29
2023-05-14T01:15:41.978Z,65.27
2023-05-14T01:18:10.849Z,65.84
2023-05-14T01:20:37.470Z,66.29
2023-05-14T01:23:04.113Z,66.30
2023-05-14T01:25:34.118Z,66.79
2023-05-14T01:28:13.599Z,67.03
2023-05-14T01:31:04.606Z,67.09
2023-05-14T01:33:33.849Z,67.10
2023-05-14T01:36:00.736Z,67.72
2023-05-14T01:38:31.732Z,67.59
2023-05-14T01:41:00.158Z,67.73
2023-05-14T01:43:27.500Z,68.44
2023-05-14T01:45:55.594Z,68.69
2023-05-14T01:48:22.488Z,68.51
2023-05-14T01:50:49.113Z,68.18
2023-05-14T01:53:15.765Z,68.00
2023-05-14T01:55:42.483Z,67.95
2023-05-14T01:58:09.101Z,68.34
2023-05-14T02:00:35.697Z,67.70
2023-05-14T02:03:02.436Z,67.36
2023-05-14T02:05:29.081Z,67.73
2023-05-14T02:07:55.685Z,68.01
2023-05-14T02:10:22.695Z,67.83
2023-05-14T02:12:49.505Z,67.87
2023-05-14T02:15:16.089Z,67.85
2023-05-14T02:17:42.721Z,67.49
2023-05-14T02:20:10.367Z,67.38
2023-05-14T02:22:37.447Z,67.18
2023-05-14T02:25:04.338Z,67.13
2023-05-14T02:27:30.911Z,66.98
2023-05-14T02:30:00.827Z,66.71
2023-05-14T02:32:28.447Z,66.67
2023-05-14T02:34:55.461Z,66.84
2023-05-14T02:37:22.199Z,67.85
2023-05-14T02:39:49.467Z,68.30
2023-05-14T02:42:16.045Z,68.77
2023-05-14T02:44:42.626Z,69.16
2023-05-14T02:47:09.400Z,68.50
2023-05-14T02:49:36.128Z,67.89
2023-05-14T02:52:02.686Z,67.73
2023-05-14T02:54:29.271Z,67.34
2023-05-14T02:56:55.881Z,66.77
2023-05-14T02:59:24.151Z,66.31
2023-05-14T03:01:53.702Z,66.03
2023-05-14T03:04:20.729Z,65.57
2023-05-14T03:06:47.384Z,65.55
2023-05-14T03:09:14.455Z,65.45
2023-05-14T03:11:41.021Z,65.11
2023-05-14T03:14:07.667Z,64.77
2023-05-14T03:16:34.436Z,64.47
2023-05-14T03:19:01.121Z,63.91
2023-05-14T03:21:27.718Z,63.75
2023-05-14T03:23:54.341Z,63.60
2023-05-14T03:26:21.681Z,63.33
2023-05-14T03:28:51.109Z,62.64
2023-05-14T03:31:17.733Z,62.51
2023-05-14T03:33:44.541Z,62.43
2023-05-14T03:36:11.203Z,62.94
2023-05-14T03:38:38.178Z,62.85
2023-05-14T03:41:04.776Z,63.01
2023-05-14T03:43:31.804Z,63.40
2023-05-14T03:45:58.416Z,63.45
2023-05-14T03:48:25.403Z,63.32
2023-05-14T03:50:52.255Z,63.07
2023-05-14T03:53:21.119Z,63.29
2023-05-14T03:55:47.670Z,62.84
2023-05-14T03:58:14.621Z,62.73
2023-05-14T04:00:42.308Z,62.46
2023-05-14T04:03:09.256Z,62.08
2023-05-14T04:05:36.152Z,61.83
2023-05-14T04:08:02.759Z,61.32
2023-05-14T04:10:29.913Z,61.07
2023-05-14T04:12:56.533Z,61.46
2023-05-14T04:15:23.384Z,61.43
2023-05-14T04:17:52.943Z,62.01
2023-05-14T04:20:19.646Z,62.34
2023-05-14T04:22:46.269Z,62.52
2023-05-14T04:25:13.381Z,62.27
2023-05-14T04:27:41.404Z,62.64
2023-05-14T04:30:08.749Z,62.32
2023-05-14T04:32:35.633Z,61.88
2023-05-14T04:35:02.780Z,61.86
2023-05-14T04:37:29.425Z,61.49
2023-05-14T04:39:56.017Z,61.48
2023-05-14T04:42:22.720Z,61.34
2023-05-14T04:44:49.349Z,61.20
2023-05-14T04:47:15.972Z,61.02
2023-05-14T04:49:43.429Z,60.96
2023-05-14T04:52:10.156Z,60.94
2023-05-14T04:54:36.914Z,61.10
2023-05-14T04:57:03.606Z,61.18
2023-05-14T04:59:30.948Z,60.75
2023-05-14T05:01:59.112Z,60.84
2023-05-14T05:04:26.384Z,60.74
2023-05-14T05:06:56.600Z,60.62
2023-05-14T05:09:23.305Z,60.38
2023-05-14T05:11:49.880Z,60.32
2023-05-14T05:14:19.378Z,60.35
2023-05-14T05:16:46.206Z,60.31
2023-05-14T05:19:12.919Z,60.33
2023-05-14T05:21:42.505Z,60.19
2023-05-14T05:24:09.144Z,60.18
2023-05-14T05:26:38.814Z,60.06
2023-05-14T05:29:06.004Z,60.38
2023-05-14T05:31:32.757Z,59.85
2023-05-14T05:34:00.119Z,59.70
2023-05-14T05:36:27.385Z,59.64
2023-05-14T05:38:54.092Z,59.84
2023-05-14T05:41:20.662Z,60.00
2023-05-14T05:43:47.265Z,59.68
2023-05-14T05:46:15.446Z,59.73
2023-05-14T05:48:42.023Z,59.83
2023-05-14T05:51:08.705Z,60.60
2023-05-14T05:53:35.382Z,61.83
2023-05-14T05:56:02.044Z,62.99
2023-05-14T05:58:28.679Z,63.03
2023-05-14T06:00:57.639Z,63.66
2023-05-14T06:03:24.252Z,63.36
2023-05-14T06:05:52.753Z,63.24
2023-05-14T06:08:19.532Z,63.21
2023-05-14T06:10:47.649Z,63.06
2023-05-14T06:13:14.529Z,62.72
2023-05-14T06:15:41.121Z,63.06
2023-05-14T06:18:09.604Z,62.38
2023-05-14T06:20:36.282Z,62.33
2023-05-14T06:23:02.823Z,62.13
2023-05-14T06:25:29.495Z,62.29
2023-05-14T06:27:56.109Z,61.52
2023-05-14T06:30:22.968Z,62.01
2023-05-14T06:32:51.814Z,61.58
2023-05-14T06:35:19.280Z,62.47
2023-05-14T06:37:46.018Z,61.48
2023-05-14T06:40:15.664Z,60.88
2023-05-14T06:42:42.641Z,61.29
2023-05-14T06:45:09.596Z,60.66
2023-05-14T06:47:36.478Z,61.13
2023-05-14T06:50:03.410Z,60.60
2023-05-14T06:52:29.946Z,60.26
2023-05-14T06:54:56.511Z,60.27
2023-05-14T06:57:23.140Z,59.20
2023-05-14T06:59:49.785Z,59.22
2023-05-14T07:02:16.380Z,59.15
2023-05-14T07:04:43.020Z,60.06
2023-05-14T07:07:13.572Z,60.19
2023-05-14T07:09:40.178Z,61.47
2023-05-14T07:12:07.476Z,61.90
2023-05-14T07:14:34.459Z,61.72
2023-05-14T07:17:02.920Z,60.90
2023-05-14T07:19:30.252Z,60.96
2023-05-14T07:21:57.713Z,60.54
2023-05-14T07:24:24.369Z,60.52
2023-05-14T07:26:51.054Z,60.64
2023-05-14T07:29:19.933Z,60.93
2023-05-14T07:31:48.714Z,60.56
2023-05-14T07:34:15.488Z,60.88
2023-05-14T07:36:42.189Z,61.49
2023-05-14T07:39:09.070Z,62.70
2023-05-14T07:41:35.837Z,63.31
2023-05-14T07:44:02.538Z,63.62
2023-05-14T07:46:29.134Z,64.45
2023-05-14T07:48:55.984Z,64.82
2023-05-14T07:51:23.115Z,65.36
2023-05-14T07:53:49.724Z,63.24
2023-05-14T07:56:16.477Z,62.18
2023-05-14T07:58:44.864Z,61.81
2023-05-14T08:01:12.829Z,61.67
2023-05-14T08:03:39.989Z,62.42
2023-05-14T08:06:06.736Z,62.63
2023-05-14T08:08:33.384Z,63.81
2023-05-14T08:11:00.017Z,64.43
2023-05-14T08:13:26.706Z,64.17
2023-05-14T08:15:53.344Z,64.80
2023-05-14T08:18:19.985Z,65.41
2023-05-14T08:20:47.070Z,66.13
2023-05-14T08:23:13.673Z,65.93
2023-05-14T08:25:40.262Z,66.40
2023-05-14T08:28:07.709Z,66.50
2023-05-14T08:30:34.595Z,67.05
2023-05-14T08:33:03.727Z,67.12
2023-05-14T08:35:30.413Z,67.63
2023-05-14T08:37:57.237Z,67.00
2023-05-14T08:40:24.006Z,66.88
2023-05-14T08:42:51.732Z,66.44
2023-05-14T08:45:20.727Z,65.85
2023-05-14T08:47:51.501Z,65.62
2023-05-14T08:50:21.891Z,65.73
2023-05-14T08:52:49.786Z,65.59
2023-05-14T08:55:16.460Z,65.44
2023-05-14T08:57:43.075Z,66.01
2023-05-14T09:00:13.236Z,66.84
2023-05-14T09:02:41.122Z,67.45
2023-05-14T09:05:09.301Z,66.39
2023-05-14T09:07:36.128Z,66.35
2023-05-14T09:10:04.073Z,66.53
2023-05-14T09:12:31.359Z,67.45
2023-05-14T09:14:58.250Z,67.99
2023-05-14T09:17:27.362Z,68.40
2023-05-14T09:19:54.487Z,68.97
2023-05-14T09:22:22.468Z,69.12
2023-05-14T09:25:06.159Z,69.67
2023-05-14T09:27:34.335Z,70.38
2023-05-14T09:30:12.640Z,68.53
2023-05-14T09:32:41.029Z,68.41
2023-05-14T09:35:17.162Z,68.32
2023-05-14T09:37:46.599Z,68.61
2023-05-14T09:40:14.037Z,68.36
2023-05-14T09:42:41.467Z,68.40
2023-05-14T09:45:09.666Z,68.02
2023-05-14T09:47:37.477Z,68.62
2023-05-14T09:50:05.054Z,69.05
2023-05-14T09:52:31.836Z,68.33
2023-05-14T09:54:58.605Z,68.42
2023-05-14T09:57:25.329Z,68.22
2023-05-14T09:59:51.921Z,68.67
2023-05-14T10:02:36.898Z,68.56
2023-05-14T10:05:04.660Z,69.32
2023-05-14T10:07:38.894Z,69.49
2023-05-14T10:10:09.580Z,70.06
2023-05-14T10:12:40.357Z,69.03
2023-05-14T10:15:20.119Z,68.70
2023-05-14T10:17:54.084Z,68.72
2023-05-14T10:20:23.419Z,68.73
2023-05-14T10:22:51.189Z,67.90
2023-05-14T10:25:18.337Z,65.96
2023-05-14T10:27:45.541Z,66.14
2023-05-14T10:30:13.055Z,66.25
2023-05-14T10:32:41.935Z,67.00
2023-05-14T10:35:25.460Z,66.70
2023-05-14T10:37:52.223Z,66.91
2023-05-14T10:40:19.500Z,66.20
2023-05-14T10:42:46.958Z,67.16
2023-05-14T10:45:15.633Z,68.21
2023-05-14T10:47:43.661Z,67.93
2023-05-14T10:50:12.876Z,65.71
2023-05-14T10:52:42.857Z,65.53
2023-05-14T10:55:12.468Z,65.14
2023-05-14T10:57:40.689Z,66.22
2023-05-14T11:00:08.981Z,65.49
2023-05-14T11:02:38.237Z,65.69
2023-05-14T11:05:17.417Z,66.45
2023-05-14T11:07:46.304Z,66.05
2023-05-14T11:10:17.921Z,65.45
2023-05-14T11:12:46.906Z,65.63
2023-05-14T11:15:15.980Z,65.44
2023-05-14T11:17:46.668Z,65.28
2023-05-14T11:20:14.107Z,66.06
2023-05-14T11:22:43.580Z,65.04
2023-05-14T11:25:14.864Z,65.35
2023-05-14T11:27:44.228Z,65.25
2023-05-14T11:30:17.886Z,66.10
2023-05-14T11:32:48.946Z,65.77
2023-05-14T11:35:16.799Z,65.81
2023-05-14T11:37:44.279Z,65.97
2023-05-14T11:40:17.220Z,66.66
2023-05-14T11:42:44.150Z,65.95
2023-05-14T11:45:12.744Z,66.21
2023-05-14T11:47:42.197Z,65.81
2023-05-14T11:50:09.813Z,65.66
2023-05-14T11:52:42.558Z,64.44
2023-05-14T11:55:13.072Z,65.42
2023-05-14T11:57:41.088Z,67.26
2023-05-14T12:00:16.869Z,67.95
2023-05-14T12:02:43.772Z,67.96
2023-05-14T12:05:13.397Z,68.47
2023-05-14T12:07:40.623Z,68.76
2023-05-14T12:10:07.917Z,70.66
2023-05-14T12:12:37.219Z,70.75
2023-05-14T12:15:12.855Z,70.67
2023-05-14T12:17:39.979Z,70.43
2023-05-14T12:20:12.566Z,69.88
2023-05-14T12:22:42.838Z,70.31
2023-05-14T12:25:14.104Z,69.92
2023-05-14T12:27:44.855Z,70.67
2023-05-14T12:30:20.552Z,70.81
2023-05-14T12:32:54.025Z,70.76
2023-05-14T12:35:22.746Z,70.20
2023-05-14T12:37:52.338Z,71.18
2023-05-14T12:40:19.091Z,71.78
2023-05-14T12:42:45.838Z,73.37
2023-05-14T12:45:12.398Z,72.38
2023-05-14T12:47:39.028Z,71.76
2023-05-14T12:50:06.582Z,72.87
2023-05-14T12:52:38.590Z,71.95
2023-05-14T12:55:09.871Z,72.87
2023-05-14T12:57:38.525Z,72.62
2023-05-14T13:00:10.826Z,72.56
2023-05-14T13:02:42.569Z,70.85
2023-05-14T13:05:11.424Z,71.06
2023-05-14T13:07:38.582Z,70.74
2023-05-14T13:10:06.016Z,71.54
2023-05-14T13:12:32.877Z,72.12
2023-05-14T13:14:59.619Z,72.52
2023-05-14T13:17:26.418Z,74.34
2023-05-14T13:19:53.022Z,75.11
2023-05-14T13:22:19.677Z,74.62
2023-05-14T13:24:46.469Z,74.68
2023-05-14T13:27:13.164Z,74.45
2023-05-14T13:29:39.858Z,73.37
2023-05-14T13:32:09.718Z,72.86
2023-05-14T13:34:36.501Z,73.70
2023-05-14T13:37:04.006Z,74.23
2023-05-14T13:39:30.764Z,74.76
2023-05-14T13:41:57.368Z,76.28
2023-05-14T13:44:24.477Z,76.81
2023-05-14T13:46:51.266Z,77.29
2023-05-14T13:49:18.059Z,77.40
2023-05-14T13:51:45.045Z,77.08
2023-05-14T13:54:15.933Z,76.92
2023-05-14T13:56:42.554Z,76.85
2023-05-14T13:59:09.471Z,76.11
2023-05-14T14:01:36.045Z,75.22
2023-05-14T14:04:03.295Z,75.58
2023-05-14T14:06:34.223Z,75.86
2023-05-14T14:09:00.968Z,76.44
2023-05-14T14:11:27.844Z,76.41
2023-05-14T14:13:54.661Z,77.74
2023-05-14T14:16:21.318Z,78.76
2023-05-14T14:18:48.070Z,79.99
2023-05-14T14:21:18.067Z,79.47
2023-05-14T14:23:48.249Z,78.34
2023-05-14T14:26:14.901Z,78.62
2023-05-14T14:28:43.698Z,79.00
2023-05-14T14:31:10.978Z,78.85
2023-05-14T14:33:37.674Z,78.47
2023-05-14T14:36:04.681Z,78.09
2023-05-14T14:38:34.316Z,79.78
2023-05-14T14:41:03.236Z,79.90
2023-05-14T14:43:29.911Z,79.21
2023-05-14T14:45:56.529Z,79.63
2023-05-14T14:48:39.243Z,80.18
2023-05-14T14:51:09.152Z,79.33
2023-05-14T14:53:39.980Z,79.58
2023-05-14T14:56:06.742Z,79.42
2023-05-14T14:58:33.451Z,79.65
2023-05-14T15:01:01.458Z,80.14
2023-05-14T15:03:28.952Z,79.67
2023-05-14T15:05:55.887Z,79.90
2023-05-14T15:08:26.130Z,79.54
2023-05-14T15:10:52.740Z,80.32
2023-05-14T15:13:19.900Z,80.48
2023-05-14T15:15:47.098Z,80.31
2023-05-14T15:18:13.841Z,80.11
2023-05-14T15:20:40.650Z,80.76
2023-05-14T15:23:10.165Z,80.29
2023-05-14T15:25:37.057Z,79.70
2023-05-14T15:28:06.344Z,79.67
2023-05-14T15:30:33.240Z,79.77
2023-05-14T15:32:59.962Z,80.38
2023-05-14T15:35:28.673Z,80.47
2023-05-14T15:37:59.597Z,80.23
2023-05-14T15:40:27.652Z,80.24
2023-05-14T15:42:54.620Z,80.50
2023-05-14T15:45:21.276Z,80.90
2023-05-14T15:47:47.940Z,80.91
2023-05-14T15:50:14.564Z,81.94
2023-05-14T15:52:41.592Z,80.40
2023-05-14T15:55:09.021Z,79.96
2023-05-14T15:57:35.719Z,80.36
2023-05-14T16:00:09.819Z,79.92
2023-05-14T16:02:37.195Z,80.56
2023-05-14T16:05:04.277Z,80.97
2023-05-14T16:07:31.016Z,81.13
2023-05-14T16:09:57.711Z,80.76
2023-05-14T16:12:26.209Z,80.37
2023-05-14T16:14:52.896Z,80.06
2023-05-14T16:17:19.612Z,80.57
2023-05-14T16:19:49.194Z,81.32
2023-05-14T16:22:16.064Z,81.61
2023-05-14T16:24:42.701Z,82.18
2023-05-14T16:27:09.390Z,81.83
2023-05-14T16:29:36.272Z,81.50
2023-05-14T16:32:03.099Z,82.26
2023-05-14T16:34:29.665Z,81.31
2023-05-14T16:36:56.333Z,82.06
2023-05-14T16:39:22.874Z,81.69
2023-05-14T16:41:49.568Z,81.68
2023-05-14T16:44:16.517Z,82.11
2023-05-14T16:46:43.244Z,83.33
2023-05-14T16:49:09.905Z,83.30
2023-05-14T16:51:43.099Z,83.91
2023-05-14T16:54:09.919Z,83.34
2023-05-14T16:56:36.861Z,83.43
2023-05-14T16:59:03.460Z,84.08
2023-05-14T17:01:30.600Z,84.15
2023-05-14T17:03:58.408Z,84.67
2023-05-14T17:06:25.085Z,84.14
2023-05-14T17:08:51.738Z,84.25
2023-05-14T17:11:18.295Z,84.22
2023-05-14T17:13:44.893Z,84.70
2023-05-14T17:16:11.826Z,84.62
2023-05-14T17:18:38.906Z,84.54
2023-05-14T17:21:07.534Z,85.43
2023-05-14T17:23:34.429Z,85.38
2023-05-14T17:26:01.023Z,85.15
2023-05-14T17:28:29.828Z,85.01
2023-05-14T17:30:57.044Z,85.40
2023-05-14T17:33:23.741Z,85.80
2023-05-14T17:35:50.473Z,85.80
2023-05-14T17:38:17.223Z,85.54
2023-05-14T17:40:43.832Z,86.18
2023-05-14T17:43:10.533Z,86.83
2023-05-14T17:45:52.570Z,85.93
2023-05-14T17:48:20.731Z,86.67
2023-05-14T17:50:51.601Z,86.17
2023-05-14T17:53:18.318Z,85.78
2023-05-14T17:55:45.067Z,86.10
2023-05-14T17:58:13.527Z,86.00
2023-05-14T18:00:40.860Z,86.31
2023-05-14T18:03:08.017Z,86.75
2023-05-14T18:05:34.806Z,87.18
2023-05-14T18:08:01.377Z,86.45
2023-05-14T18:10:29.680Z,86.47
2023-05-14T18:12:56.734Z,86.44
2023-05-14T18:15:25.778Z,86.79
2023-05-14T18:17:53.083Z,86.68
2023-05-14T18:20:20.060Z,86.95
2023-05-14T18:22:46.729Z,87.05
2023-05-14T18:25:13.806Z,87.41
2023-05-14T18:27:44.522Z,87.56
2023-05-14T18:30:15.756Z,87.13
2023-05-14T18:32:44.383Z,87.01
2023-05-14T18:35:12.259Z,87.25
2023-05-14T18:37:41.802Z,87.64
2023-05-14T18:40:09.085Z,87.47
2023-05-14T18:42:35.741Z,87.18
2023-05-14T18:45:02.594Z,86.77
2023-05-14T18:47:29.584Z,86.85
2023-05-14T18:49:59.043Z,86.81
2023-05-14T18:52:26.297Z,87.75
2023-05-14T18:54:53.838Z,87.25
2023-05-14T18:57:21.055Z,87.99
2023-05-14T18:59:49.834Z,87.36
2023-05-14T19:02:16.688Z,87.52
2023-05-14T19:04:52.466Z,87.99
2023-05-14T19:07:22.944Z,87.95
2023-05-14T19:09:49.512Z,87.75
2023-05-14T19:12:16.357Z,88.19
2023-05-14T19:14:42.966Z,88.14
2023-05-14T19:17:09.676Z,87.93
2023-05-14T19:19:37.905Z,88.33
2023-05-14T19:22:04.709Z,88.24
2023-05-14T19:24:31.307Z,88.46
2023-05-14T19:26:58.005Z,89.00
2023-05-14T19:29:25.042Z,88.97
2023-05-14T19:31:51.862Z,88.31
2023-05-14T19:34:18.544Z,89.39
2023-05-14T19:36:45.479Z,89.48
2023-05-14T19:39:12.077Z,89.00
2023-05-14T19:41:38.663Z,88.73
2023-05-14T19:44:05.359Z,89.63
2023-05-14T19:46:32.043Z,89.15
2023-05-14T19:48:58.771Z,89.35
2023-05-14T19:51:25.592Z,88.75
2023-05-14T19:53:52.249Z,88.86
2023-05-14T19:56:19.057Z,88.90
2023-05-14T19:58:45.647Z,89.32
2023-05-14T20:01:12.469Z,88.88
2023-05-14T20:03:42.153Z,89.24
2023-05-14T20:06:08.859Z,89.43
2023-05-14T20:08:35.542Z,89.29
2023-05-14T20:11:02.152Z,89.14
2023-05-14T20:13:31.846Z,88.86
2023-05-14T20:15:58.871Z,88.88
2023-05-14T20:18:25.670Z,89.09
2023-05-14T20:20:52.262Z,88.91
2023-05-14T20:23:18.917Z,88.39
2023-05-14T20:25:45.606Z,88.76
2023-05-14T20:28:12.249Z,88.72
2023-05-14T20:30:40.204Z,89.20
2023-05-14T20:33:06.817Z,89.12
2023-05-14T20:35:33.587Z,88.55
2023-05-14T20:38:00.455Z,88.37
2023-05-14T20:40:27.166Z,88.49
2023-05-14T20:42:53.784Z,88.19
2023-05-14T20:45:20.432Z,88.33
2023-05-14T20:47:47.118Z,88.34
2023-05-14T20:50:13.904Z,88.14
2023-05-14T20:52:40.893Z,87.88
2023-05-14T20:55:08.005Z,88.21
2023-05-14T20:57:34.656Z,88.19
2023-05-14T21:00:02.487Z,87.88
2023-05-14T21:02:29.261Z,88.68
2023-05-14T21:04:55.991Z,88.70
2023-05-14T21:07:22.792Z,88.83
2023-05-14T21:09:52.576Z,88.63
2023-05-14T21:12:19.651Z,88.72
2023-05-14T21:14:46.376Z,89.05
2023-05-14T21:17:13.071Z,88.89
2023-05-14T21:19:39.872Z,88.94
2023-05-14T21:22:06.903Z,88.88
2023-05-14T21:24:33.539Z,88.53
2023-05-14T21:27:00.183Z,88.74
2023-05-14T21:29:26.730Z,88.64
2023-05-14T21:31:53.415Z,88.80
2023-05-14T21:34:20.445Z,89.29
2023-05-14T21:36:47.577Z,89.39
2023-05-14T21:39:14.235Z,89.64
2023-05-14T21:41:41.441Z,89.36
2023-05-14T21:44:08.148Z,89.39
2023-05-14T21:46:34.818Z,89.48
2023-05-14T21:49:01.532Z,89.07
2023-05-14T21:51:28.180Z,89.26
2023-05-14T21:53:54.852Z,89.20
2023-05-14T21:56:22.592Z,89.15
2023-05-14T21:58:49.251Z,89.52
2023-05-14T22:01:15.954Z,89.25
2023-05-14T22:03:42.650Z,88.91
2023-05-14T22:06:09.306Z,88.48
2023-05-14T22:08:36.989Z,88.21
2023-05-14T22:11:03.766Z,88.19
2023-05-14T22:13:30.432Z,87.81
2023-05-14T22:16:09.090Z,87.84
2023-05-14T22:18:39.227Z,87.43
2023-05-14T22:21:05.980Z,87.75
2023-05-14T22:23:32.557Z,87.31
2023-05-14T22:25:59.161Z,87.20
2023-05-14T22:28:25.877Z,87.18
2023-05-14T22:30:52.608Z,87.04
2023-05-14T22:33:19.489Z,86.76
2023-05-14T22:35:46.198Z,86.57
2023-05-14T22:38:13.964Z,86.65
2023-05-14T22:40:40.802Z,86.40
2023-05-14T22:43:07.412Z,86.82
2023-05-14T22:45:34.210Z,86.59
2023-05-14T22:48:00.937Z,86.18
2023-05-14T22:50:27.545Z,86.38
2023-05-14T22:52:54.179Z,85.93
2023-05-14T22:55:21.211Z,85.25
2023-05-14T22:57:48.007Z,85.38
2023-05-14T23:00:15.396Z,85.33
2023-05-14T23:02:42.135Z,85.34
2023-05-14T23:05:09.480Z,84.87
2023-05-14T23:07:36.213Z,84.84
2023-05-14T23:10:02.869Z,84.42
2023-05-14T23:12:29.591Z,84.68
2023-05-14T23:14:56.232Z,84.08
2023-05-14T23:17:22.945Z,83.68
2023-05-14T23:19:49.686Z,83.73
2023-05-14T23:22:16.442Z,83.29
2023-05-14T23:24:43.143Z,82.87
2023-05-14T23:27:11.478Z,83.04
2023-05-14T23:29:38.472Z,83.16
2023-05-14T23:32:05.410Z,83.02
2023-05-14T23:34:32.398Z,82.70
2023-05-14T23:36:59.055Z,82.51
2023-05-14T23:39:25.856Z,82.57
2023-05-14T23:41:52.493Z,82.48
2023-05-14T23:44:19.111Z,82.07
2023-05-14T23:46:45.806Z,82.00
2023-05-14T23:49:12.832Z,82.18
2023-05-14T23:51:39.493Z,81.70
2023-05-14T23:54:06.097Z,81.87
2023-05-14T23:56:33.677Z,81.84
2023-05-14T23:59:00.419Z,81.60
